createdAt,value
2023-02-27T00:00:56.543Z,45.33
2023-02-27T00:03:28.607Z,28.95
2023-02-27T00:05:56.440Z,20.42
2023-02-27T00:08:26.842Z,15.63
2023-02-27T00:10:53.962Z,14.65
2023-02-27T00:13:21.790Z,12.63
2023-02-27T00:15:50.517Z,22.50
2023-02-27T00:18:18.030Z,19.70
2023-02-27T00:20:45.348Z,15.82
2023-02-27T00:23:12.827Z,19.02
2023-02-27T00:25:39.903Z,13.73
2023-02-27T00:28:07.870Z,12.43
2023-02-27T00:30:35.441Z,23.90
2023-02-27T00:33:03.719Z,16.55
2023-02-27T00:35:30.714Z,18.50
2023-02-27T00:37:58.127Z,13.52
2023-02-27T00:40:28.035Z,15.90
2023-02-27T00:42:55.396Z,12.55
2023-02-27T00:45:22.736Z,11.00
2023-02-27T00:47:50.024Z,12.55
2023-02-27T00:50:17.103Z,11.65
2023-02-27T00:52:44.537Z,12.18
2023-02-27T00:55:12.010Z,9.25
2023-02-27T00:57:40.486Z,10.55
2023-02-27T01:00:09.205Z,11.45
2023-02-27T01:02:36.768Z,11.63
2023-02-27T01:05:04.000Z,10.73
2023-02-27T01:07:31.784Z,9.57
2023-02-27T01:10:02.131Z,9.68
2023-02-27T01:12:29.634Z,9.20
2023-02-27T01:14:56.693Z,10.98
2023-02-27T01:17:24.046Z,10.80
2023-02-27T01:19:51.215Z,10.73
2023-02-27T01:22:18.538Z,8.18
2023-02-27T01:24:45.972Z,9.73
2023-02-27T01:27:14.118Z,8.77
2023-02-27T01:29:41.433Z,7.85
2023-02-27T01:32:08.842Z,10.45
2023-02-27T01:34:35.979Z,9.32
2023-02-27T01:37:03.570Z,9.02
2023-02-27T01:39:32.881Z,10.52
2023-02-27T01:42:01.072Z,9.80
2023-02-27T01:44:31.298Z,7.68
2023-02-27T01:46:58.803Z,9.63
2023-02-27T01:49:31.914Z,10.05
2023-02-27T01:52:07.431Z,7.97
2023-02-27T01:54:40.396Z,11.57
2023-02-27T01:57:08.531Z,9.10
2023-02-27T01:59:38.350Z,10.30
2023-02-27T02:02:12.702Z,8.38
2023-02-27T02:04:40.583Z,7.27
2023-02-27T02:07:14.896Z,8.95
2023-02-27T02:09:50.788Z,7.20
2023-02-27T02:12:20.414Z,8.77
2023-02-27T02:14:47.566Z,9.05
2023-02-27T02:17:25.275Z,7.95
2023-02-27T02:20:12.069Z,12.18
2023-02-27T02:23:04.098Z,8.32
2023-02-27T02:26:08.292Z,11.93
2023-02-27T02:29:03.277Z,11.40
2023-02-27T02:31:44.149Z,9.60
2023-02-27T02:34:54.870Z,8.52
2023-02-27T02:37:47.838Z,10.07
2023-02-27T02:40:53.502Z,15.32
2023-02-27T02:43:29.693Z,10.57
2023-02-27T02:46:10.465Z,7.32
2023-02-27T02:48:44.857Z,9.05
2023-02-27T02:51:35.608Z,10.15
2023-02-27T02:54:10.346Z,10.18
2023-02-27T02:56:43.819Z,8.90
2023-02-27T02:59:26.632Z,9.57
2023-02-27T03:02:02.647Z,10.43
2023-02-27T03:04:53.820Z,7.68
2023-02-27T03:07:30.470Z,10.15
2023-02-27T03:10:17.543Z,10.85
2023-02-27T03:12:51.275Z,10.60
2023-02-27T03:15:20.949Z,11.25
2023-02-27T03:18:02.122Z,11.63
2023-02-27T03:20:35.184Z,12.05
2023-02-27T03:23:09.749Z,8.63
2023-02-27T03:28:12.459Z,8.60
2023-02-27T03:30:53.793Z,8.77
2023-02-27T03:33:38.071Z,14.85
2023-02-27T03:36:26.934Z,19.58
2023-02-27T03:39:05.215Z,15.68
2023-02-27T03:41:52.878Z,14.57
2023-02-27T03:44:34.010Z,8.98
2023-02-27T03:47:01.135Z,8.00
2023-02-27T03:49:28.641Z,6.68
2023-02-27T03:51:56.358Z,9.63
2023-02-27T03:54:31.487Z,5.90
2023-02-27T03:57:06.826Z,8.85
2023-02-27T03:59:36.918Z,10.27
2023-02-27T04:02:04.463Z,10.25
2023-02-27T04:04:35.624Z,9.57
2023-02-27T04:07:25.049Z,10.30
2023-02-27T04:10:21.592Z,16.58
2023-02-27T04:13:17.372Z,13.55
2023-02-27T04:16:00.954Z,12.85
2023-02-27T04:18:56.807Z,11.68
2023-02-27T04:21:43.114Z,9.93
2023-02-27T04:24:20.097Z,13.65
2023-02-27T04:26:54.195Z,13.55
2023-02-27T04:29:56.050Z,12.52
2023-02-27T04:32:38.533Z,16.08
2023-02-27T04:35:15.142Z,17.20
2023-02-27T04:38:02.597Z,17.05
2023-02-27T04:41:00.332Z,16.00
2023-02-27T04:43:29.570Z,18.50
2023-02-27T04:45:59.919Z,18.60
2023-02-27T04:48:33.176Z,17.13
2023-02-27T04:51:05.056Z,22.08
2023-02-27T04:53:52.193Z,20.60
2023-02-27T04:56:33.305Z,18.75
2023-02-27T04:59:06.220Z,18.27
2023-02-27T05:01:44.826Z,19.50
2023-02-27T05:04:15.677Z,21.77
2023-02-27T05:06:45.987Z,29.90
2023-02-27T05:09:37.818Z,31.75
2023-02-27T05:12:14.435Z,28.00
2023-02-27T05:15:13.056Z,27.17
2023-02-27T05:17:52.383Z,37.80
2023-02-27T05:20:20.084Z,44.85
2023-02-27T05:22:58.248Z,127.05
2023-02-27T05:25:44.640Z,64.47
2023-02-27T05:28:24.381Z,56.35
2023-02-27T05:31:01.288Z,27.10
2023-02-27T05:33:36.632Z,15.13
2023-02-27T05:36:26.298Z,15.07
2023-02-27T05:38:58.822Z,15.55
2023-02-27T05:41:31.150Z,14.50
2023-02-27T05:44:15.926Z,13.15
2023-02-27T05:46:49.299Z,12.13
2023-02-27T05:49:24.530Z,13.57
2023-02-27T05:51:56.849Z,11.85
2023-02-27T05:54:29.525Z,16.30
2023-02-27T05:56:58.626Z,20.60
2023-02-27T05:59:34.138Z,35.22
2023-02-27T06:02:01.742Z,25.35
2023-02-27T06:04:28.912Z,22.70
2023-02-27T06:06:57.185Z,27.27
2023-02-27T06:09:24.325Z,23.98
2023-02-27T06:11:51.591Z,18.67
2023-02-27T06:14:18.835Z,16.30
2023-02-27T06:16:46.160Z,17.05
2023-02-27T06:19:13.285Z,15.38
2023-02-27T06:21:40.604Z,15.25
2023-02-27T06:24:08.676Z,12.02
2023-02-27T06:26:36.053Z,14.25
2023-02-27T06:29:03.178Z,12.85
2023-02-27T06:31:30.444Z,12.95
2023-02-27T06:33:57.897Z,14.18
2023-02-27T06:36:25.420Z,11.07
2023-02-27T06:38:52.684Z,14.05
2023-02-27T06:41:20.330Z,12.52
2023-02-27T06:43:47.889Z,11.55
2023-02-27T06:46:15.363Z,10.43
2023-02-27T06:48:42.804Z,9.98
2023-02-27T06:51:10.071Z,10.25
2023-02-27T06:53:37.526Z,19.58
2023-02-27T06:56:05.159Z,15.85
2023-02-27T06:58:32.590Z,9.27
2023-02-27T07:01:00.991Z,11.20
2023-02-27T07:03:28.041Z,21.33
2023-02-27T07:05:57.224Z,34.80
2023-02-27T07:08:24.341Z,11.48
2023-02-27T07:10:51.695Z,14.45
2023-02-27T07:13:19.844Z,14.18
2023-02-27T07:15:47.859Z,43.38
2023-02-27T07:18:15.164Z,21.52
2023-02-27T07:20:44.850Z,92.57
2023-02-27T07:23:12.412Z,59.55
2023-02-27T07:25:39.856Z,41.15
2023-02-27T07:28:07.127Z,48.97
2023-02-27T07:30:34.793Z,36.22
2023-02-27T07:33:01.896Z,29.67
2023-02-27T07:35:29.384Z,30.02
2023-02-27T07:37:56.558Z,15.02
2023-02-27T07:40:24.415Z,14.07
2023-02-27T07:42:53.207Z,14.20
2023-02-27T07:45:20.918Z,21.42
2023-02-27T07:47:48.303Z,17.35
2023-02-27T07:50:15.898Z,14.20
2023-02-27T07:52:44.165Z,21.25
2023-02-27T07:55:12.842Z,26.13
2023-02-27T07:57:40.056Z,28.80
2023-02-27T08:00:09.512Z,13.18
2023-02-27T08:02:40.211Z,27.73
2023-02-27T08:05:09.213Z,13.77
2023-02-27T08:07:36.829Z,14.43
2023-02-27T08:10:05.636Z,12.60
2023-02-27T08:12:32.696Z,9.95
2023-02-27T08:14:59.989Z,46.25
2023-02-27T08:17:35.198Z,25.30
2023-02-27T08:20:04.792Z,9.45
2023-02-27T08:22:32.502Z,38.65
2023-02-27T08:25:01.210Z,50.47
2023-02-27T08:27:28.212Z,29.15
2023-02-27T08:29:56.167Z,21.15
2023-02-27T08:32:23.444Z,23.40
2023-02-27T08:34:50.672Z,42.42
2023-02-27T08:37:17.781Z,41.67
2023-02-27T08:39:45.201Z,37.90
2023-02-27T08:42:12.330Z,18.27
2023-02-27T08:44:39.802Z,30.38
2023-02-27T08:47:11.923Z,17.30
2023-02-27T08:49:41.331Z,21.42
2023-02-27T08:52:10.139Z,41.20
2023-02-27T08:54:37.543Z,30.52
2023-02-27T08:57:04.667Z,15.82
2023-02-27T08:59:32.056Z,55.83
2023-02-27T09:01:59.199Z,12.57
2023-02-27T09:04:26.582Z,16.33
2023-02-27T09:06:53.802Z,24.25
2023-02-27T09:09:23.884Z,19.83
2023-02-27T09:11:51.846Z,13.85
2023-02-27T09:14:19.618Z,30.42
2023-02-27T09:16:46.834Z,14.68
2023-02-27T09:19:14.648Z,32.28
2023-02-27T09:21:42.637Z,42.35
2023-02-27T09:24:19.898Z,9.98
2023-02-27T09:26:49.059Z,39.88
2023-02-27T09:29:17.176Z,38.47
2023-02-27T09:31:44.407Z,5.53
2023-02-27T09:34:11.842Z,13.68
2023-02-27T09:36:38.813Z,13.85
2023-02-27T09:39:06.216Z,15.68
2023-02-27T09:42:00.621Z,15.25
2023-02-27T09:44:47.691Z,41.50
2023-02-27T09:47:37.160Z,7.70
2023-02-27T09:50:18.980Z,20.98
2023-02-27T09:52:46.138Z,8.52
2023-02-27T09:55:19.132Z,16.90
2023-02-27T09:57:56.436Z,9.85
2023-02-27T10:00:49.477Z,12.13
2023-02-27T10:03:37.544Z,20.55
2023-02-27T10:06:37.054Z,13.85
2023-02-27T10:09:18.799Z,22.27
2023-02-27T10:12:07.030Z,4.68
2023-02-27T10:14:49.806Z,5.22
2023-02-27T10:17:30.477Z,11.38
2023-02-27T10:20:00.267Z,5.50
2023-02-27T10:22:35.321Z,23.02
2023-02-27T10:25:28.404Z,22.55
2023-02-27T10:28:08.801Z,12.02
2023-02-27T10:30:37.991Z,11.48
2023-02-27T10:33:24.018Z,6.70
2023-02-27T10:35:54.040Z,14.23
2023-02-27T10:38:38.935Z,5.90
2023-02-27T10:41:09.956Z,3.93
2023-02-27T10:43:37.824Z,2.35
2023-02-27T10:46:14.963Z,7.82
2023-02-27T10:48:42.438Z,7.88
2023-02-27T10:51:31.375Z,4.22
2023-02-27T10:54:25.064Z,11.43
2023-02-27T10:56:53.857Z,3.03
2023-02-27T10:59:31.036Z,6.68
2023-02-27T11:02:20.894Z,12.27
2023-02-27T11:04:56.337Z,7.68
2023-02-27T11:10:01.203Z,5.35
2023-02-27T11:12:30.883Z,5.43
2023-02-27T11:15:20.530Z,5.40
2023-02-27T11:17:51.807Z,17.75
2023-02-27T11:20:36.146Z,8.35
2023-02-27T11:23:16.584Z,11.48
2023-02-27T11:25:44.399Z,5.50
2023-02-27T11:28:20.707Z,4.25
2023-02-27T11:31:01.152Z,3.75
2023-02-27T11:33:38.581Z,7.38
2023-02-27T11:36:07.162Z,5.50
2023-02-27T11:38:34.831Z,21.63
2023-02-27T11:41:05.578Z,6.80
2023-02-27T11:43:48.196Z,3.47
2023-02-27T11:46:47.744Z,6.07
2023-02-27T11:49:18.350Z,12.35
2023-02-27T11:51:51.388Z,11.18
2023-02-27T11:54:38.864Z,7.38
2023-02-27T11:57:28.155Z,7.65
2023-02-27T12:00:14.181Z,47.67
2023-02-27T12:02:47.161Z,3.75
2023-02-27T12:05:20.521Z,4.65
2023-02-27T12:08:01.935Z,4.38
2023-02-27T12:10:39.725Z,7.45
2023-02-27T12:13:17.813Z,23.48
2023-02-27T12:15:46.893Z,5.22
2023-02-27T12:18:21.243Z,17.20
2023-02-27T12:21:11.991Z,11.00
2023-02-27T12:23:47.952Z,19.42
2023-02-27T12:26:34.716Z,26.42
2023-02-27T12:29:13.830Z,24.00
2023-02-27T12:32:06.392Z,13.90
2023-02-27T12:34:49.757Z,30.13
2023-02-27T12:37:26.050Z,20.80
2023-02-27T12:39:57.105Z,21.45
2023-02-27T12:42:54.570Z,11.45
2023-02-27T12:45:45.161Z,11.27
2023-02-27T12:49:03.820Z,22.02
2023-02-27T12:51:53.480Z,38.42
2023-02-27T12:54:37.667Z,23.38
2023-02-27T12:57:50.301Z,8.53
2023-02-27T13:00:48.225Z,35.85
2023-02-27T13:03:55.962Z,15.07
2023-02-27T13:06:56.359Z,11.65
2023-02-27T13:09:44.300Z,24.98
2023-02-27T13:12:46.697Z,13.32
2023-02-27T13:15:36.012Z,14.60
2023-02-27T13:18:23.542Z,12.35
2023-02-27T13:21:09.147Z,7.88
2023-02-27T13:24:14.641Z,10.05
2023-02-27T13:27:08.370Z,15.35
2023-02-27T13:29:40.946Z,11.52
2023-02-27T13:32:43.182Z,8.70
2023-02-27T13:35:20.608Z,7.35
2023-02-27T13:37:51.662Z,8.18
2023-02-27T13:40:40.278Z,5.47
2023-02-27T13:43:46.474Z,7.18
2023-02-27T13:46:26.374Z,11.18
2023-02-27T13:48:54.643Z,17.83
2023-02-27T13:51:42.955Z,6.00
2023-02-27T13:54:16.008Z,7.45
2023-02-27T13:56:49.315Z,4.60
2023-02-27T13:59:21.172Z,4.95
2023-02-27T14:01:57.320Z,4.60
2023-02-27T14:04:28.669Z,11.35
2023-02-27T14:07:15.239Z,6.03
2023-02-27T14:09:46.882Z,9.00
2023-02-27T14:12:46.218Z,10.25
2023-02-27T14:15:35.747Z,8.75
2023-02-27T14:18:17.883Z,4.68
2023-02-27T14:20:53.085Z,43.35
2023-02-27T14:23:28.056Z,43.47
2023-02-27T14:26:24.119Z,35.80
2023-02-27T14:28:55.853Z,182.15
2023-02-27T14:31:36.447Z,86.88
2023-02-27T14:34:09.172Z,20.25
2023-02-27T14:36:47.059Z,9.90
2023-02-27T14:39:33.123Z,34.80
2023-02-27T14:42:19.344Z,22.75
2023-02-27T14:44:50.823Z,15.75
2023-02-27T14:47:29.901Z,56.35
2023-02-27T14:49:57.435Z,14.73
2023-02-27T14:52:31.285Z,37.97
2023-02-27T14:55:16.446Z,22.95
2023-02-27T15:00:40.937Z,56.63
2023-02-27T15:03:17.035Z,18.75
2023-02-27T15:05:45.042Z,33.38
2023-02-27T15:08:22.573Z,36.25
2023-02-27T15:10:51.363Z,33.83
2023-02-27T15:13:32.716Z,39.33
2023-02-27T15:16:22.643Z,23.90
2023-02-27T15:19:14.616Z,25.60
2023-02-27T15:21:45.150Z,26.42
2023-02-27T15:24:50.335Z,24.20
2023-02-27T15:27:20.946Z,13.65
2023-02-27T15:29:59.905Z,32.92
2023-02-27T15:32:36.137Z,13.68
2023-02-27T15:35:13.020Z,27.35
2023-02-27T15:37:44.827Z,42.33
2023-02-27T15:40:19.563Z,42.35
2023-02-27T15:42:46.920Z,94.97
2023-02-27T15:45:23.664Z,123.57
2023-02-27T15:47:50.910Z,34.50
2023-02-27T15:50:18.157Z,30.08
2023-02-27T15:52:52.951Z,32.80
2023-02-27T15:55:30.946Z,20.40
2023-02-27T15:58:03.790Z,32.53
2023-02-27T16:00:34.077Z,28.00
2023-02-27T16:03:01.418Z,31.48
2023-02-27T16:05:39.117Z,24.13
2023-02-27T16:08:07.068Z,52.20
2023-02-27T16:10:43.013Z,19.90
2023-02-27T16:13:28.221Z,31.45
2023-02-27T16:16:20.897Z,15.65
2023-02-27T16:18:53.522Z,48.35
2023-02-27T16:21:24.497Z,29.40
2023-02-27T16:23:52.385Z,16.60
2023-02-27T16:26:38.197Z,15.48
2023-02-27T16:31:40.754Z,24.48
2023-02-27T16:34:15.959Z,28.13
2023-02-27T16:37:01.548Z,7.85
2023-02-27T16:39:31.329Z,15.85
2023-02-27T16:42:00.026Z,44.42
2023-02-27T16:44:29.389Z,29.20
2023-02-27T16:46:58.878Z,41.97
2023-02-27T16:49:28.698Z,19.23
2023-02-27T16:52:03.862Z,13.95
2023-02-27T16:54:31.535Z,62.10
2023-02-27T16:56:59.047Z,36.80
2023-02-27T16:59:34.262Z,32.63
2023-02-27T17:02:05.279Z,23.15
2023-02-27T17:04:32.988Z,17.38
2023-02-27T17:07:06.361Z,16.55
2023-02-27T17:09:35.182Z,18.70
2023-02-27T17:12:02.638Z,10.85
2023-02-27T17:14:29.681Z,12.88
2023-02-27T17:16:59.455Z,8.77
2023-02-27T17:19:27.121Z,5.60
2023-02-27T17:21:54.598Z,15.48
2023-02-27T17:24:24.523Z,8.45
2023-02-27T17:26:54.340Z,13.00
2023-02-27T17:29:21.809Z,15.43
2023-02-27T17:31:51.272Z,24.95
2023-02-27T17:34:18.549Z,29.15
2023-02-27T17:36:46.101Z,17.35
2023-02-27T17:39:14.862Z,12.27
2023-02-27T17:41:43.321Z,13.75
2023-02-27T17:44:12.016Z,10.15
2023-02-27T17:46:40.083Z,15.35
2023-02-27T17:49:07.266Z,12.60
2023-02-27T17:51:34.682Z,14.52
2023-02-27T17:54:05.637Z,69.38
2023-02-27T17:56:36.271Z,915.53
2023-02-27T17:59:04.161Z,834.78
2023-02-27T18:01:31.645Z,546.17
2023-02-27T18:04:00.278Z,375.85
2023-02-27T18:06:28.736Z,298.23
2023-02-27T18:08:56.159Z,547.55
2023-02-27T18:11:23.788Z,1059.97
2023-02-27T18:13:51.344Z,768.10
2023-02-27T18:16:22.034Z,343.60
2023-02-27T18:18:50.581Z,379.23
2023-02-27T18:21:21.075Z,151.65
2023-02-27T18:23:51.000Z,174.73
2023-02-27T18:26:32.156Z,419.85
2023-02-27T18:29:11.102Z,239.40
2023-02-27T18:31:42.649Z,279.17
2023-02-27T18:34:10.876Z,356.55
2023-02-27T18:36:39.476Z,246.68
2023-02-27T18:39:06.770Z,158.50
2023-02-27T18:41:34.814Z,98.75
2023-02-27T18:44:01.940Z,98.85
2023-02-27T18:46:32.041Z,145.57
2023-02-27T18:48:59.505Z,191.63
2023-02-27T18:51:27.727Z,269.25
2023-02-27T18:53:54.937Z,271.88
2023-02-27T18:56:28.071Z,293.30
2023-02-27T18:58:58.186Z,252.32
2023-02-27T19:01:31.116Z,227.45
2023-02-27T19:04:03.431Z,233.32
2023-02-27T19:06:36.321Z,266.08
2023-02-27T19:09:13.203Z,227.02
2023-02-27T19:11:40.847Z,222.00
2023-02-27T19:14:11.513Z,150.63
2023-02-27T19:16:39.513Z,93.88
2023-02-27T19:19:10.604Z,80.75
2023-02-27T19:21:38.444Z,115.35
2023-02-27T19:24:06.984Z,323.90
2023-02-27T19:26:34.803Z,287.27
2023-02-27T19:29:02.491Z,304.67
2023-02-27T19:31:29.893Z,308.10
2023-02-27T19:33:58.755Z,209.32
2023-02-27T19:36:28.316Z,153.50
2023-02-27T19:38:56.928Z,158.55
2023-02-27T19:41:25.283Z,121.72
2023-02-27T19:43:53.621Z,113.28
2023-02-27T19:46:25.009Z,103.68
2023-02-27T19:48:54.144Z,91.05
2023-02-27T19:51:22.911Z,86.18
2023-02-27T19:53:50.533Z,122.18
2023-02-27T19:56:21.128Z,116.47
2023-02-27T19:58:51.464Z,91.00
2023-02-27T20:01:23.305Z,247.80
2023-02-27T20:03:51.743Z,256.98
2023-02-27T20:06:21.756Z,219.75
2023-02-27T20:08:49.414Z,215.85
2023-02-27T20:11:20.900Z,158.95
2023-02-27T20:13:50.192Z,323.83
2023-02-27T20:16:22.213Z,320.60
2023-02-27T20:18:51.416Z,202.05
2023-02-27T20:21:21.183Z,127.90
2023-02-27T20:23:51.570Z,95.70
2023-02-27T20:26:22.276Z,134.07
2023-02-27T20:28:52.195Z,146.32
2023-02-27T20:31:22.067Z,122.93
2023-02-27T20:33:52.887Z,60.92
2023-02-27T20:36:20.724Z,60.78
2023-02-27T20:38:47.885Z,69.07
2023-02-27T20:41:18.466Z,72.45
2023-02-27T20:43:45.706Z,209.23
2023-02-27T20:46:18.560Z,135.20
2023-02-27T20:48:46.154Z,77.35
2023-02-27T20:51:24.402Z,70.85
2023-02-27T20:53:54.072Z,116.95
2023-02-27T20:56:23.243Z,143.57
2023-02-27T20:58:50.637Z,128.23
2023-02-27T21:01:19.172Z,118.53
2023-02-27T21:03:47.527Z,192.07
2023-02-27T21:06:16.075Z,138.50
2023-02-27T21:08:47.737Z,78.50
2023-02-27T21:11:22.295Z,71.43
2023-02-27T21:13:52.449Z,42.00
2023-02-27T21:16:21.010Z,203.20
2023-02-27T21:18:51.382Z,348.60
2023-02-27T21:21:22.934Z,69.88
2023-02-27T21:23:51.370Z,40.67
2023-02-27T21:26:29.073Z,49.60
2023-02-27T21:29:01.928Z,288.70
2023-02-27T21:32:10.292Z,276.88
2023-02-27T21:34:37.501Z,330.00
2023-02-27T21:37:07.254Z,688.22
2023-02-27T21:39:34.426Z,375.55
2023-02-27T21:42:01.820Z,135.75
2023-02-27T21:44:29.710Z,70.45
2023-02-27T21:46:57.033Z,35.90
2023-02-27T21:49:26.386Z,30.30
2023-02-27T21:51:54.475Z,32.17
2023-02-27T21:54:21.739Z,111.75
2023-02-27T21:56:49.937Z,707.55
2023-02-27T21:59:19.036Z,804.63
2023-02-27T22:01:48.093Z,787.10
2023-02-27T22:04:19.005Z,902.70
2023-02-27T22:06:49.910Z,1483.80
2023-02-27T22:09:17.654Z,1188.35
2023-02-27T22:11:45.865Z,644.33
2023-02-27T22:14:13.094Z,570.05
2023-02-27T22:16:41.388Z,285.98
2023-02-27T22:19:10.984Z,185.80
2023-02-27T22:21:39.208Z,125.50
2023-02-27T22:24:07.389Z,86.38
2023-02-27T22:26:35.414Z,69.72
2023-02-27T22:29:03.432Z,369.50
2023-02-27T22:31:33.886Z,424.15
2023-02-27T22:34:12.107Z,410.48
2023-02-27T22:36:41.670Z,446.27
2023-02-27T22:39:08.899Z,514.95
2023-02-27T22:41:39.569Z,687.30
2023-02-27T22:44:08.800Z,937.60
2023-02-27T22:46:39.137Z,732.38
2023-02-27T22:49:08.684Z,655.17
2023-02-27T22:51:37.801Z,563.50
2023-02-27T22:54:06.102Z,457.92
2023-02-27T22:56:37.173Z,661.60
2023-02-27T22:59:05.315Z,490.15
2023-02-27T23:01:35.866Z,468.10
2023-02-27T23:04:08.504Z,439.88
2023-02-27T23:06:39.385Z,332.27
2023-02-27T23:09:09.221Z,176.70
2023-02-27T23:11:36.565Z,154.45
2023-02-27T23:14:03.765Z,163.77
2023-02-27T23:16:31.524Z,131.50
2023-02-27T23:18:59.969Z,161.20
2023-02-27T23:21:34.666Z,363.63
2023-02-27T23:24:07.017Z,308.23
2023-02-27T23:26:53.140Z,80.53
2023-02-27T23:29:20.513Z,40.22
2023-02-27T23:31:48.106Z,42.58
2023-02-27T23:34:15.249Z,57.78
2023-02-27T23:36:42.510Z,68.22
2023-02-27T23:39:12.060Z,64.68
2023-02-27T23:41:39.452Z,65.57
2023-02-27T23:44:06.468Z,60.88
2023-02-27T23:46:33.972Z,74.78
2023-02-27T23:49:01.922Z,119.97
2023-02-27T23:51:30.825Z,234.38
2023-02-27T23:53:58.768Z,97.43
2023-02-27T23:56:28.624Z,78.97
2023-02-27T23:58:58.231Z,108.32
